ケープタウン国際空港の過去48時間の天気

ケープタウン国際空港 (Cape Town, Cape Town International Airport)

現在時刻: 3/26 21:21 SAST (3/26 19:21 UTC) 以下の時間は現地時間です。

過去48時間のMETAR気象情報
時間 風向 風速(m/s) 視程 気温(℃) 湿度(%) 気圧(hPa) 天気現象
26 21:00 4 10km以上 21 60 1015
26 20:00 西南西 5 10km以上 20 64 1016
26 19:00 南西 6 10km以上 21 60 1015
26 18:00 南西 6 10km以上 22 57 1016
26 17:00 南南西 6 10km以上 23 53 1016
26 16:00 南西 7 10km以上 22 57 1016
26 15:00 南南西 7 10km以上 26 42 1016
26 14:00 7 10km以上 25 41 1018
26 13:00 7 10km以上 26 34 1018
26 12:00 4 10km以上 26 34 1018
26 11:24 3 10km以上 25 34 1018
26 11:00 不定 2 10km以上 23 38 1018
26 10:00 不定 1 10km以上 22 46 1018
26 09:00 南南東 3 10km以上 20 53 1018
26 08:00 5 10km以上 18 64 1018
26 07:58 5 10km以上 18 64 1018
26 07:00 4 10km以上 16 72 1017
26 06:00 南南東 7 10km以上 17 68 1017
26 05:00 10 10km以上 17 72 1017
26 04:00 10 10km以上 17 72 1018
26 03:00 10 10km以上 17 72 1018
26 02:00 10 10km以上 17 72 1019
26 01:00 9 10km以上 17 72 1019
26 00:00 10 10km以上 17 77 1020
25 23:00 11 10km以上 17 77 1020
25 22:00 10 10km以上 17 77 1020
FACT 261900Z 17008KT 130V190 CAVOK 21/13 Q1015 NOSIG
FACT 261800Z 25010KT CAVOK 20/13 Q1016 NOSIG
FACT 261700Z 23011KT CAVOK 21/13 Q1015 NOSIG
FACT 261600Z 23011KT CAVOK 22/13 Q1016 NOSIG
FACT 261500Z 21011KT CAVOK 23/13 Q1016 NOSIG
FACT 261400Z 23014KT CAVOK 22/13 Q1016 NOSIG
FACT 261300Z 20013KT CAVOK 26/12 Q1016 NOSIG
FACT 261200Z 19014KT CAVOK 25/11 Q1018 NOSIG
FACT 261100Z 19013KT 160V220 CAVOK 26/09 Q1018 NOSIG
FACT 261000Z 17008KT 130V200 CAVOK 26/09 Q1018 NOSIG
FACT 260924Z 18005KT 090V250 CAVOK 25/08 Q1018 NOSIG
FACT 260900Z VRB03KT CAVOK 23/08 Q1018 NOSIG
FACT 260800Z VRB02KT CAVOK 22/10 Q1018 NOSIG
FACT 260700Z 15006KT 110V170 CAVOK 20/10 Q1018 NOSIG
FACT 260600Z 19010KT CAVOK 18/11 Q1018 NOSIG
FACT 260558Z 19010KT CAVOK 18/11 Q1018 NOSIG
FACT 260500Z 17007KT CAVOK 16/11 Q1017 NOSIG
FACT 260400Z 16014KT CAVOK 17/11 Q1017 NOSIG
FACT 260300Z 17020KT CAVOK 17/12 Q1017 NOSIG
FACT 260200Z 18019KT CAVOK 17/12 Q1018 NOSIG
FACT 260100Z 18020KT CAVOK 17/12 Q1018 NOSIG
FACT 260000Z 18019KT CAVOK 17/12 Q1019 NOSIG
FACT 252300Z 19018KT CAVOK 17/12 Q1019 NOSIG
FACT 252200Z 19019KT CAVOK 17/13 Q1020 NOSIG
FACT 252100Z 18021KT CAVOK 17/13 Q1020 NOSIG
FACT 252000Z 18019KT CAVOK 17/13 Q1020 NOSIG